Time;durP1;ratioP1;P1;durP2;ratioP2;P2;SDS_P1;SDS_P2;PMS_P1;PMS_P2;Temp;Humidity;BMP_temperature;BMP_pressure;BME280_temperature;BME280_humidity;BME280_pressure;Samples;Min_cycle;Max_cycle;Signal;HPM_P1;HPM_P2
2022/11/30 00:01:11;;;;;;;11.90;6.07;;;;;;;-5.12;74.89;99548.84;4931194;28;20090;-77
2022/11/30 00:03:41;;;;;;;13.95;6.28;;;;;;;-5.14;74.09;99541.16;4920735;28;20040;-77
2022/11/30 00:06:14;;;;;;;16.40;6.63;;;;;;;-5.28;74.16;99539.81;4930973;28;20044;-77
2022/11/30 00:08:46;;;;;;;13.13;6.03;;;;;;;-5.31;74.30;99522.75;4930929;28;20048;-77
2022/11/30 00:11:19;;;;;;;13.45;5.30;;;;;;;-4.98;74.02;99542.56;4929485;28;20320;-78
2022/11/30 00:13:50;;;;;;;11.85;5.68;;;;;;;-4.89;73.90;99532.69;4930872;28;20047;-77
2022/11/30 00:16:21;;;;;;;15.93;6.65;;;;;;;-4.90;73.60;99523.28;4931070;28;20052;-77
2022/11/30 00:18:52;;;;;;;21.35;5.25;;;;;;;-4.87;73.08;99530.16;4931021;28;20108;-77
2022/11/30 00:21:23;;;;;;;14.43;5.25;;;;;;;-4.85;71.58;99538.72;4930632;28;20443;-77
2022/11/30 00:23:55;;;;;;;19.52;6.22;;;;;;;-4.98;70.34;99506.88;4931053;28;20098;-78
2022/11/30 00:26:26;;;;;;;17.83;5.32;;;;;;;-4.73;68.68;99548.47;4930317;28;20048;-77
2022/11/30 00:28:57;;;;;;;9.65;4.90;;;;;;;-4.68;67.34;99541.84;4929729;28;20136;-78
2022/11/30 00:31:27;;;;;;;10.68;4.38;;;;;;;-4.63;66.17;99530.13;4937527;28;20110;-78
2022/11/30 00:33:58;;;;;;;12.30;5.07;;;;;;;-4.67;65.16;99513.84;4934120;28;20053;-78
2022/11/30 00:36:29;;;;;;;15.23;4.82;;;;;;;-4.37;65.14;99547.13;4931177;28;20274;-78
2022/11/30 00:39:01;;;;;;;9.32;4.47;;;;;;;-4.31;64.50;99523.50;4930935;28;20059;-77
2022/11/30 00:41:32;;;;;;;13.57;4.47;;;;;;;-4.43;64.91;99539.28;4930484;28;20064;-77
2022/11/30 00:44:02;;;;;;;13.43;5.00;;;;;;;-4.63;64.96;99525.03;4930954;28;20394;-78
2022/11/30 00:46:33;;;;;;;13.02;4.40;;;;;;;-4.86;64.58;99542.97;4930625;28;20099;-77
2022/11/30 00:49:04;;;;;;;8.98;3.90;;;;;;;-4.97;65.10;99544.28;4930220;28;20074;-78
2022/11/30 00:51:35;;;;;;;16.38;3.95;;;;;;;-4.83;65.71;99517.59;4930212;28;20064;-78
2022/11/30 00:54:07;;;;;;;8.02;4.55;;;;;;;-4.65;65.64;99526.66;4930439;28;20094;-78
2022/11/30 00:56:38;;;;;;;8.80;4.32;;;;;;;-4.52;65.71;99527.91;4924653;28;20452;-78
2022/11/30 00:59:08;;;;;;;10.40;4.45;;;;;;;-4.60;65.41;99514.91;4932535;28;20053;-79
2022/11/30 01:01:39;;;;;;;12.55;4.78;;;;;;;-4.40;65.74;99531.72;4930521;28;20375;-79
2022/11/30 01:04:10;;;;;;;14.38;4.75;;;;;;;-4.36;66.23;99509.75;4930481;28;20052;-79
2022/11/30 01:06:41;;;;;;;6.28;4.13;;;;;;;-4.28;66.59;99507.41;4930774;28;20048;-79
2022/11/30 01:09:13;;;;;;;14.25;5.00;;;;;;;-4.14;66.27;99521.47;4930440;28;20052;-79
2022/11/30 01:11:44;;;;;;;14.60;4.68;;;;;;;-4.10;65.95;99517.31;4930075;28;20112;-78
2022/11/30 01:14:14;;;;;;;9.48;4.10;;;;;;;-4.23;65.21;99510.97;4928482;28;20095;-78
2022/11/30 01:16:45;;;;;;;9.65;3.70;;;;;;;-4.36;64.49;99520.78;4923888;28;20083;-78
2022/11/30 01:19:20;;;;;;;9.35;3.45;;;;;;;-4.21;64.85;99529.75;4916514;28;20059;-78
2022/11/30 01:21:51;;;;;;;10.43;3.95;;;;;;;-4.38;64.21;99517.31;4930486;28;20340;-79
2022/11/30 01:24:23;;;;;;;8.93;3.50;;;;;;;-4.35;64.00;99517.41;4930435;28;20040;-78
2022/11/30 01:26:54;;;;;;;7.72;3.47;;;;;;;-4.29;63.93;99515.88;4929991;28;20082;-79
2022/11/30 01:29:24;;;;;;;8.95;3.30;;;;;;;-4.13;64.08;99518.09;4929776;28;20067;-78
2022/11/30 01:31:57;;;;;;;11.85;3.38;;;;;;;-4.09;63.87;99509.72;4933144;28;20052;-78
2022/11/30 01:34:48;;;;;;;6.15;2.85;;;;;;;-4.04;63.41;99520.94;4950593;28;20055;-79
2022/11/30 01:37:19;;;;;;;7.70;3.25;;;;;;;-4.01;63.60;99518.47;4923552;28;20406;-79
2022/11/30 01:39:51;;;;;;;12.15;3.67;;;;;;;-4.08;63.30;99506.34;4933995;28;20052;-79
2022/11/30 01:42:22;;;;;;;6.78;3.03;;;;;;;-4.14;62.55;99506.16;4933808;28;20052;-79
2022/11/30 01:44:55;;;;;;;7.43;3.38;;;;;;;-4.15;62.57;99499.31;4933880;28;20055;-79
2022/11/30 01:47:31;;;;;;;7.43;3.22;;;;;;;-4.20;62.48;99495.75;4927569;28;20056;-79
2022/11/30 01:50:07;;;;;;;6.43;3.20;;;;;;;-4.13;62.61;99505.34;4923156;28;20059;-78
2022/11/30 01:52:44;;;;;;;8.25;3.78;;;;;;;-4.25;62.45;99471.78;4915845;28;20063;-79
2022/11/30 01:55:24;;;;;;;8.07;3.65;;;;;;;-3.99;62.73;99511.72;4933416;28;20036;-78
2022/11/30 01:58:06;;;;;;;9.85;3.40;;;;;;;-3.97;62.63;99493.88;4919668;28;20076;-79
2022/11/30 02:00:36;;;;;;;6.70;3.28;;;;;;;-3.78;63.14;99490.19;4940425;28;20088;-78
2022/11/30 02:03:12;;;;;;;10.77;2.83;;;;;;;-3.73;62.82;99480.97;4933011;28;20053;-78
2022/11/30 02:05:43;;;;;;;7.47;3.22;;;;;;;-3.66;62.38;99489.69;4930354;28;20344;-79
2022/11/30 02:08:14;;;;;;;10.57;3.15;;;;;;;-3.53;62.07;99481.53;4921375;28;20126;-78
2022/11/30 02:11:01;;;;;;;11.93;3.10;;;;;;;-3.42;61.25;99484.38;4913034;28;20048;-79
2022/11/30 02:13:54;;;;;;;7.65;3.20;;;;;;;-3.50;61.20;99454.38;4907595;28;20539;-78
2022/11/30 02:16:31;;;;;;;9.18;2.60;;;;;;;-3.23;61.02;99478.94;4903327;28;20040;-78
2022/11/30 02:19:12;;;;;;;7.88;3.13;;;;;;;-3.34;59.74;99476.09;4903928;28;20416;-79
2022/11/30 02:21:48;;;;;;;5.18;2.45;;;;;;;-3.36;60.02;99484.53;4915440;28;20041;-79
2022/11/30 02:24:44;;;;;;;6.20;2.38;;;;;;;-3.38;59.34;99475.97;4923578;28;20097;-78
2022/11/30 02:27:30;;;;;;;5.53;2.80;;;;;;;-3.51;59.66;99480.75;4922668;28;20047;-77
2022/11/30 02:30:07;;;;;;;6.07;2.47;;;;;;;-3.86;59.88;99420.19;4918811;28;20040;-77
2022/11/30 02:32:44;;;;;;;5.20;2.53;;;;;;;-3.45;60.05;99474.06;4910050;28;20045;-77
2022/11/30 02:35:19;;;;;;;9.35;3.13;;;;;;;-3.39;59.77;99472.56;4936454;28;20071;-77
2022/11/30 02:37:52;;;;;;;5.60;3.03;;;;;;;-3.20;59.43;99475.59;4920988;28;20063;-77
2022/11/30 02:40:23;;;;;;;5.63;2.80;;;;;;;-3.19;60.07;99462.88;4933722;28;20049;-78
2022/11/30 02:42:55;;;;;;;8.63;3.15;;;;;;;-3.23;59.47;99466.16;4933243;28;20047;-78
2022/11/30 02:45:34;;;;;;;8.00;2.70;;;;;;;-3.39;59.34;99470.00;4931734;28;20409;-78
2022/11/30 02:48:12;;;;;;;7.78;2.75;;;;;;;-3.68;59.59;99456.44;4923023;28;20045;-78
2022/11/30 02:50:48;;;;;;;6.22;2.28;;;;;;;-3.60;60.16;99470.28;4922522;28;20056;-78
2022/11/30 02:53:19;;;;;;;6.35;2.30;;;;;;;-3.64;59.91;99463.38;4927066;28;20248;-78
2022/11/30 02:55:50;;;;;;;4.55;2.47;;;;;;;-3.81;59.77;99455.22;4930999;28;20090;-78
2022/11/30 02:58:21;;;;;;;7.22;2.55;;;;;;;-3.89;59.97;99459.25;4931265;28;20044;-77
2022/11/30 03:00:53;;;;;;;13.45;2.60;;;;;;;-3.90;59.81;99450.72;4930781;28;20045;-77
2022/11/30 03:03:24;;;;;;;6.00;2.90;;;;;;;-3.68;59.36;99461.53;4930636;28;20078;-77
2022/11/30 03:05:55;;;;;;;9.50;2.30;;;;;;;-3.73;58.95;99452.88;4930712;28;20047;-77
2022/11/30 03:08:25;;;;;;;7.60;3.05;;;;;;;-3.64;58.71;99458.25;4929115;28;20048;-78
2022/11/30 03:10:56;;;;;;;4.72;2.35;;;;;;;-3.45;58.28;99448.53;4930103;28;20051;-77
2022/11/30 03:13:27;;;;;;;6.60;2.50;;;;;;;-3.47;56.73;99446.81;4928483;28;20371;-78
2022/11/30 03:15:59;;;;;;;4.32;2.80;;;;;;;-3.29;56.69;99450.69;4936001;28;20049;-77
2022/11/30 03:18:30;;;;;;;5.72;2.22;;;;;;;-3.10;55.54;99445.19;4930901;28;20339;-77
2022/11/30 03:21:01;;;;;;;6.35;2.30;;;;;;;-2.97;55.34;99455.72;4930501;28;20098;-76
2022/11/30 03:23:31;;;;;;;9.05;3.17;;;;;;;-2.77;54.47;99451.09;4930480;28;20056;-77
2022/11/30 03:26:02;;;;;;;4.57;2.35;;;;;;;-2.63;54.59;99445.47;4928509;28;20237;-78
2022/11/30 03:28:33;;;;;;;6.85;2.38;;;;;;;-2.53;54.96;99446.56;4924914;28;20037;-78
2022/11/30 03:31:06;;;;;;;6.53;2.40;;;;;;;-2.56;54.36;99450.75;4927933;28;20059;-76
2022/11/30 03:33:37;;;;;;;3.83;2.50;;;;;;;-2.59;54.99;99450.69;4921563;28;20256;-77
2022/11/30 03:36:10;;;;;;;4.20;2.38;;;;;;;-2.66;55.32;99447.97;4907161;28;20092;-77
2022/11/30 03:38:41;;;;;;;5.97;2.53;;;;;;;-2.82;55.34;99439.09;4922321;28;20047;-77
2022/11/30 03:41:15;;;;;;;6.95;2.78;;;;;;;-3.38;55.18;99435.09;4920053;28;20037;-76
2022/11/30 03:43:46;;;;;;;7.13;2.60;;;;;;;-3.26;56.53;99430.31;4929767;28;20040;-77
2022/11/30 03:46:18;;;;;;;5.30;2.28;;;;;;;-3.26;56.43;99425.19;4929774;28;20040;-77
2022/11/30 03:48:49;;;;;;;8.65;2.53;;;;;;;-3.26;55.33;99420.09;4912311;28;20057;-77
2022/11/30 03:51:20;;;;;;;4.20;2.50;;;;;;;-3.40;54.56;99426.53;4929613;28;20438;-77
2022/11/30 03:53:50;;;;;;;7.57;2.95;;;;;;;-3.69;53.47;99421.53;4923258;28;20337;-76
2022/11/30 03:56:21;;;;;;;5.68;2.28;;;;;;;-3.73;53.35;99432.47;4927726;28;20083;-77
2022/11/30 03:58:52;;;;;;;5.35;2.45;;;;;;;-3.80;54.08;99435.66;4929445;28;20350;-77
2022/11/30 04:01:42;;;;;;;6.65;2.60;;;;;;;-3.71;55.26;99433.38;4927871;28;20048;-77
2022/11/30 04:04:13;;;;;;;8.25;2.60;;;;;;;-3.90;55.33;99430.31;4919419;28;20532;-77
2022/11/30 04:06:43;;;;;;;5.93;2.13;;;;;;;-4.23;54.87;99442.97;4929087;28;20116;-76
2022/11/30 04:09:14;;;;;;;5.57;2.72;;;;;;;-4.47;55.38;99439.66;4936679;28;20044;-78
2022/11/30 04:11:45;;;;;;;8.57;2.90;;;;;;;-4.60;55.74;99443.53;4931537;28;20271;-77
2022/11/30 04:14:21;;;;;;;8.07;2.67;;;;;;;-4.78;56.05;99410.69;4941354;28;20109;-77
2022/11/30 04:16:56;;;;;;;7.10;2.30;;;;;;;-4.52;56.18;99442.06;4929736;28;20070;-78
2022/11/30 04:19:28;;;;;;;3.75;2.10;;;;;;;-4.54;56.78;99459.03;4921293;28;20537;-78
2022/11/30 04:21:59;;;;;;;8.05;2.60;;;;;;;-4.63;57.33;99443.44;4928422;28;20062;-78
2022/11/30 04:24:29;;;;;;;5.82;2.42;;;;;;;-4.58;57.62;99447.00;4927081;28;20263;-77
2022/11/30 04:27:00;;;;;;;6.68;2.83;;;;;;;-4.47;57.99;99444.78;4927301;28;20673;-77
2022/11/30 04:29:31;;;;;;;3.95;2.30;;;;;;;-4.39;57.95;99449.31;4927118;28;20055;-80
2022/11/30 04:32:03;;;;;;;8.48;2.55;;;;;;;-4.49;57.23;99444.75;4927916;28;20044;-77
2022/11/30 04:34:34;;;;;;;3.80;2.45;;;;;;;-4.63;57.44;99453.63;4926817;28;20044;-77
2022/11/30 04:37:04;;;;;;;5.03;2.95;;;;;;;-4.77;58.05;99451.53;4926444;28;20504;-78
2022/11/30 04:39:36;;;;;;;4.88;2.67;;;;;;;-4.88;58.18;99457.97;4927275;28;20068;-77
2022/11/30 04:42:07;;;;;;;4.13;2.38;;;;;;;-5.02;59.66;99459.19;4928781;28;20055;-77
2022/11/30 04:44:37;;;;;;;8.13;3.10;;;;;;;-5.36;61.17;99452.97;4932910;28;20066;-77
2022/11/30 04:47:10;;;;;;;6.38;2.83;;;;;;;-5.22;62.31;99461.06;4932277;28;20052;-77
2022/11/30 04:49:41;;;;;;;6.90;2.65;;;;;;;-5.22;62.31;99469.59;4929287;28;20040;-77
2022/11/30 04:52:11;;;;;;;3.83;2.15;;;;;;;-5.47;61.50;99456.81;4929055;28;20044;-77
2022/11/30 04:54:42;;;;;;;7.53;2.80;;;;;;;-5.61;61.16;99465.69;4928901;28;20078;-77
2022/11/30 04:57:14;;;;;;;5.70;2.60;;;;;;;-5.69;61.04;99463.72;4928748;28;20040;-79
2022/11/30 04:59:45;;;;;;;8.82;2.88;;;;;;;-5.60;61.26;99487.75;4928198;28;20082;-78
2022/11/30 05:02:17;;;;;;;4.32;2.65;;;;;;;-5.53;60.97;99474.44;4928004;28;20047;-77
2022/11/30 05:04:48;;;;;;;5.72;2.65;;;;;;;-5.68;60.29;99465.44;4923435;28;20460;-78
2022/11/30 05:07:19;;;;;;;8.07;2.97;;;;;;;-5.65;61.04;99469.78;4929021;28;20052;-77
2022/11/30 05:09:49;;;;;;;5.45;2.47;;;;;;;-5.63;61.27;99466.47;4932202;28;20037;-78
2022/11/30 05:12:21;;;;;;;7.63;2.78;;;;;;;-5.60;60.79;99473.34;4933110;28;20106;-77
2022/11/30 05:14:52;;;;;;;4.72;2.72;;;;;;;-5.54;60.38;99487.97;4932765;28;20049;-77
2022/11/30 05:17:25;;;;;;;7.75;2.63;;;;;;;-5.46;60.30;99496.75;4929862;28;20059;-77
2022/11/30 05:19:55;;;;;;;4.65;2.33;;;;;;;-5.36;60.23;99486.06;4928677;28;20105;-77
2022/11/30 05:22:26;;;;;;;3.50;2.33;;;;;;;-5.47;59.08;99480.59;4926068;28;20095;-79
2022/11/30 05:24:56;;;;;;;5.88;2.75;;;;;;;-5.29;59.68;99505.84;4922045;28;20707;-78
2022/11/30 05:27:27;;;;;;;7.10;2.67;;;;;;;-5.40;59.44;99512.22;4939552;28;20057;-78
2022/11/30 05:29:58;;;;;;;6.25;2.80;;;;;;;-5.53;60.31;99515.16;4936147;28;20049;-78
2022/11/30 05:32:31;;;;;;;7.10;2.53;;;;;;;-5.76;60.31;99512.66;4932950;28;21089;-78
2022/11/30 05:35:01;;;;;;;8.00;2.63;;;;;;;-5.85;60.65;99522.47;4933545;28;20166;-76
2022/11/30 05:37:32;;;;;;;5.15;2.50;;;;;;;-5.99;61.03;99523.66;4926207;28;20079;-78
2022/11/30 05:40:03;;;;;;;8.82;3.08;;;;;;;-6.12;60.64;99522.34;4932153;28;20052;-78
2022/11/30 05:42:34;;;;;;;16.80;4.07;;;;;;;-6.13;60.57;99526.56;4926956;28;20047;-76
2022/11/30 05:45:05;;;;;;;9.63;2.90;;;;;;;-5.95;61.11;99545.88;4931401;28;20036;-78
2022/11/30 05:47:37;;;;;;;5.30;2.85;;;;;;;-5.88;60.52;99542.72;4930783;28;20052;-76
2022/11/30 05:50:09;;;;;;;7.65;2.75;;;;;;;-6.02;60.39;99549.00;4916507;28;20215;-77
2022/11/30 05:52:40;;;;;;;5.38;2.60;;;;;;;-6.21;59.97;99555.94;4932110;28;20324;-77
2022/11/30 05:55:32;;;;;;;5.00;2.90;;;;;;;-6.48;59.85;99562.47;4932058;28;20048;-77
2022/11/30 05:58:02;;;;;;;4.85;2.55;;;;;;;-6.59;60.22;99555.28;4914307;28;20052;-77
2022/11/30 06:00:33;;;;;;;5.78;2.80;;;;;;;-6.64;60.25;99556.78;4926839;28;20094;-77
2022/11/30 06:03:06;;;;;;;6.55;2.90;;;;;;;-6.84;60.34;99524.56;4926916;28;20048;-78
2022/11/30 06:05:37;;;;;;;5.88;3.10;;;;;;;-6.69;60.00;99548.06;4921276;28;20045;-79
2022/11/30 06:08:10;;;;;;;8.40;2.60;;;;;;;-6.72;60.31;99558.97;4933219;28;20102;-79
2022/11/30 06:10:44;;;;;;;7.97;4.15;;;;;;;-6.76;60.23;99558.81;4931900;28;20059;-79
2022/11/30 06:13:15;;;;;;;3.20;2.45;;;;;;;-6.85;60.13;99560.94;4930819;28;20179;-79
2022/11/30 06:15:46;;;;;;;7.18;3.17;;;;;;;-6.81;60.62;99563.69;4927691;28;20333;-78
2022/11/30 06:18:18;;;;;;;5.03;3.03;;;;;;;-6.92;60.23;99554.75;4931290;28;20053;-79
2022/11/30 06:20:49;;;;;;;7.13;3.70;;;;;;;-6.86;60.41;99564.28;4921663;28;20052;-78
2022/11/30 06:23:20;;;;;;;7.13;3.35;;;;;;;-6.85;60.62;99561.81;4930299;28;20044;-79
2022/11/30 06:25:55;;;;;;;6.18;2.70;;;;;;;-6.80;61.12;99564.56;4931746;28;20045;-79
2022/11/30 06:28:26;;;;;;;5.15;2.50;;;;;;;-6.87;60.88;99568.50;4931197;28;20056;-79
2022/11/30 06:31:00;;;;;;;5.07;2.83;;;;;;;-7.01;61.50;99560.31;4929696;28;20061;-80
2022/11/30 06:33:32;;;;;;;8.68;3.58;;;;;;;-7.03;62.05;99567.00;4928266;28;20060;-78
2022/11/30 06:36:04;;;;;;;9.38;3.80;;;;;;;-7.04;62.46;99559.31;4928595;28;20071;-77
2022/11/30 06:38:34;;;;;;;4.63;2.50;;;;;;;-7.01;62.26;99562.84;4930619;28;20135;-78
2022/11/30 06:41:06;;;;;;;10.10;2.80;;;;;;;-7.05;62.97;99563.53;4931246;28;20467;-77
2022/11/30 06:43:39;;;;;;;5.07;2.60;;;;;;;-7.19;63.57;99564.59;4926845;28;20117;-78
2022/11/30 06:46:10;;;;;;;6.28;2.80;;;;;;;-7.25;63.87;99559.25;4931334;28;20048;-78
2022/11/30 06:48:43;;;;;;;6.35;3.15;;;;;;;-7.32;64.69;99562.34;4929254;28;20041;-77
2022/11/30 06:51:17;;;;;;;6.22;2.88;;;;;;;-7.50;64.85;99545.50;4930946;28;20048;-77
2022/11/30 06:53:50;;;;;;;8.32;2.95;;;;;;;-7.41;65.70;99563.69;4914042;28;20545;-77
2022/11/30 06:56:30;;;;;;;6.10;3.08;;;;;;;-7.58;66.17;99564.59;4926580;28;20065;-79
2022/11/30 06:59:00;;;;;;;3.72;2.42;;;;;;;-7.52;66.85;99569.06;4930893;28;20054;-77
2022/11/30 07:01:31;;;;;;;6.82;2.50;;;;;;;-7.49;67.51;99575.13;4930803;28;20054;-77
2022/11/30 07:04:04;;;;;;;5.47;3.00;;;;;;;-7.56;68.18;99568.09;4930541;28;20115;-77
2022/11/30 07:06:35;;;;;;;10.05;2.80;;;;;;;-7.52;68.96;99580.09;4930414;28;20053;-79
2022/11/30 07:09:12;;;;;;;6.93;2.75;;;;;;;-7.61;69.83;99560.25;4930130;28;20063;-77
2022/11/30 07:11:42;;;;;;;5.60;2.60;;;;;;;-7.62;69.85;99580.47;4920633;28;20103;-77
2022/11/30 07:14:14;;;;;;;5.78;2.80;;;;;;;-7.81;70.46;99556.84;4931147;28;20044;-77
2022/11/30 07:16:45;;;;;;;7.57;2.95;;;;;;;-7.76;70.90;99571.38;4930228;28;20060;-78
2022/11/30 07:19:25;;;;;;;8.43;3.55;;;;;;;-7.69;71.55;99581.00;4930871;28;20048;-78
2022/11/30 07:21:59;;;;;;;4.90;3.10;;;;;;;-7.71;71.54;99578.41;4929309;28;20159;-78
2022/11/30 07:27:18;;;;;;;9.02;4.20;;;;;;;-7.58;72.37;99579.84;4921062;28;20097;-77
2022/11/30 07:29:52;;;;;;;7.53;3.40;;;;;;;-7.55;72.42;99574.03;4929533;28;20040;-79
2022/11/30 07:32:26;;;;;;;11.15;3.72;;;;;;;-7.46;73.11;99582.91;4930096;28;20098;-78
2022/11/30 07:34:58;;;;;;;7.18;3.83;;;;;;;-7.39;72.63;99577.31;4928309;28;20151;-78
2022/11/30 07:37:30;;;;;;;8.30;3.95;;;;;;;-7.46;72.21;99580.38;4930464;28;20119;-77
2022/11/30 07:40:41;;;;;;;7.38;3.58;;;;;;;-7.45;72.77;99587.19;4929589;28;20274;-78
2022/11/30 07:43:18;;;;;;;8.85;3.80;;;;;;;-7.34;73.21;99584.25;4913791;28;20055;-79
2022/11/30 07:45:53;;;;;;;8.88;4.05;;;;;;;-7.33;73.19;99586.00;4907566;28;20052;-78
2022/11/30 07:48:37;;;;;;;17.83;5.13;;;;;;;-7.24;73.31;99583.84;4914259;28;20053;-78
2022/11/30 07:51:13;;;;;;;20.80;5.90;;;;;;;-7.33;73.29;99580.91;4928545;28;20087;-78
2022/11/30 07:53:44;;;;;;;18.23;5.85;;;;;;;-7.16;74.01;99574.91;4929306;28;20040;-77
2022/11/30 07:56:17;;;;;;;16.00;5.95;;;;;;;-7.11;73.57;99583.59;4929560;28;20044;-78
2022/11/30 07:59:07;;;;;;;24.63;8.20;;;;;;;-7.37;73.06;99554.53;4922974;28;20048;-77
2022/11/30 08:01:40;;;;;;;;;;;;;;;-7.28;72.94;99593.00;4921696;28;20369;-78
2022/11/30 08:04:12;;;;;;;26.42;7.68;;;;;;;-7.30;73.06;99586.13;4930344;28;19931;-78
2022/11/30 08:06:54;;;;;;;20.58;7.93;;;;;;;-7.26;73.46;99572.75;4930038;28;20059;-78
2022/11/30 08:09:38;;;;;;;15.48;5.28;;;;;;;-7.32;73.21;99585.19;4908969;28;20381;-77
2022/11/30 08:12:17;;;;;;;12.15;5.15;;;;;;;-7.29;73.61;99598.00;4929810;28;20048;-78
2022/11/30 08:14:48;;;;;;;9.38;4.25;;;;;;;-7.24;73.62;99596.53;4925953;28;20147;-77
2022/11/30 08:17:38;;;;;;;12.40;4.68;;;;;;;-7.42;73.02;99597.47;4920148;28;20041;-78
2022/11/30 08:20:20;;;;;;;12.30;4.55;;;;;;;-7.51;72.92;99592.00;4929895;28;20040;-77
2022/11/30 08:22:53;;;;;;;9.73;4.60;;;;;;;-7.39;73.21;99597.63;4927601;28;20054;-77
2022/11/30 08:25:26;;;;;;;10.00;4.45;;;;;;;-7.35;72.88;99602.81;4936433;28;20044;-79
2022/11/30 08:27:58;;;;;;;10.13;4.22;;;;;;;-7.37;72.83;99601.06;4924285;28;20507;-78
2022/11/30 08:30:37;;;;;;;7.85;4.00;;;;;;;-7.27;73.07;99601.47;4926356;28;20040;-78
2022/11/30 08:33:09;;;;;;;6.78;4.13;;;;;;;-7.16;72.97;99595.22;4921320;28;20351;-78
2022/11/30 08:35:40;;;;;;;8.27;3.72;;;;;;;-7.22;72.36;99602.53;4929946;28;20060;-79
2022/11/30 08:38:13;;;;;;;7.88;4.07;;;;;;;-7.38;71.40;99608.63;4929233;28;20125;-79
2022/11/30 08:40:45;;;;;;;6.72;4.05;;;;;;;-7.50;70.74;99598.78;4928638;28;20040;-80
2022/11/30 08:43:16;;;;;;;8.35;3.65;;;;;;;-7.57;70.95;99599.31;4918362;28;20048;-78
2022/11/30 08:45:55;;;;;;;7.75;3.47;;;;;;;-7.54;71.13;99596.91;4927130;28;20053;-78
2022/11/30 08:48:45;;;;;;;7.38;3.90;;;;;;;-7.57;70.87;99612.00;4928844;28;20052;-79
2022/11/30 08:51:19;;;;;;;8.32;4.40;;;;;;;-7.62;70.91;99613.47;4919468;28;20044;-78
2022/11/30 08:53:56;;;;;;;7.97;3.97;;;;;;;-7.56;71.47;99613.75;4915360;28;20340;-79
2022/11/30 08:56:27;;;;;;;8.05;3.97;;;;;;;-7.60;71.04;99627.94;4925100;28;20331;-78
2022/11/30 08:58:59;;;;;;;7.03;3.83;;;;;;;-7.61;71.47;99625.38;4929191;28;20056;-77
2022/11/30 09:01:35;;;;;;;6.32;3.78;;;;;;;-7.65;71.76;99609.13;4929552;28;20044;-78
2022/11/30 09:04:15;;;;;;;9.00;4.00;;;;;;;-7.55;72.11;99607.00;4928693;28;20065;-78
2022/11/30 09:06:48;;;;;;;9.93;4.97;;;;;;;-7.56;72.34;99608.69;4917338;28;20109;-78
2022/11/30 09:09:21;;;;;;;11.10;5.15;;;;;;;-7.61;71.56;99595.78;4918400;28;20060;-79
2022/11/30 09:11:53;;;;;;;14.73;4.78;;;;;;;-7.66;70.77;99621.72;4909186;28;20049;-78
2022/11/30 09:14:23;;;;;;;32.03;12.23;;;;;;;-7.69;70.52;99617.38;4925390;28;20052;-77
2022/11/30 09:16:58;;;;;;;9.90;4.55;;;;;;;-7.90;70.48;99586.84;4922738;28;20049;-81
2022/11/30 09:19:31;;;;;;;12.50;5.25;;;;;;;-7.45;71.42;99626.91;4921020;28;20056;-79
2022/11/30 09:22:09;;;;;;;10.05;4.13;;;;;;;-7.33;71.08;99636.75;4928223;28;20086;-80
2022/11/30 09:24:46;;;;;;;8.52;3.70;;;;;;;-7.30;70.75;99632.66;4919497;28;20040;-80
2022/11/30 09:27:18;;;;;;;9.70;4.55;;;;;;;-7.35;70.82;99633.28;4925970;28;20065;-79
2022/11/30 09:29:49;;;;;;;9.70;4.40;;;;;;;-7.31;70.61;99640.22;4928174;28;20062;-79
2022/11/30 09:32:26;;;;;;;8.73;4.20;;;;;;;-7.24;71.19;99642.22;4928634;28;20120;-79
2022/11/30 09:35:06;;;;;;;7.60;3.67;;;;;;;-7.25;70.69;99630.34;4927638;28;20280;-79
2022/11/30 09:37:41;;;;;;;9.15;4.18;;;;;;;-7.25;70.48;99645.56;4914946;28;20048;-80
2022/11/30 09:40:32;;;;;;;8.18;3.85;;;;;;;-7.48;70.19;99627.66;4924983;28;20091;-78
2022/11/30 09:43:23;;;;;;;13.38;5.50;;;;;;;-7.37;70.48;99640.81;4915057;28;20083;-79
2022/11/30 09:46:01;;;;;;;23.70;8.57;;;;;;;-7.39;70.70;99643.31;4918529;28;20052;-80
2022/11/30 09:49:02;;;;;;;31.48;9.75;;;;;;;-7.55;69.88;99651.00;4918537;28;20090;-79
2022/11/30 09:51:46;;;;;;;28.33;9.00;;;;;;;-7.67;70.27;99645.38;4923943;28;20044;-80
2022/11/30 09:54:22;;;;;;;14.23;5.85;;;;;;;-7.46;71.29;99650.53;4915092;28;20063;-79
2022/11/30 09:56:55;;;;;;;12.90;4.57;;;;;;;-7.41;71.07;99649.97;4924152;28;20040;-79
2022/11/30 09:59:28;;;;;;;12.02;4.80;;;;;;;-7.48;70.97;99632.72;4929265;28;20052;-79
2022/11/30 10:02:01;;;;;;;10.88;4.60;;;;;;;-7.58;70.94;99610.28;4918468;28;20111;-79
2022/11/30 10:04:32;;;;;;;9.77;4.57;;;;;;;-7.20;71.55;99664.41;4928126;28;20234;-79
2022/11/30 10:07:40;;;;;;;9.90;4.05;;;;;;;-7.39;71.28;99653.44;4921224;28;20049;-79
2022/11/30 10:10:26;;;;;;;7.22;3.28;;;;;;;-7.50;70.94;99659.69;4917008;28;20059;-79
2022/11/30 10:13:23;;;;;;;8.98;3.15;;;;;;;-7.58;71.60;99671.16;4918310;28;20044;-79
2022/11/30 10:16:16;;;;;;;9.63;3.95;;;;;;;-7.62;71.94;99659.13;4916532;28;20264;-79
2022/11/30 10:19:04;;;;;;;7.93;3.63;;;;;;;-7.61;72.31;99671.03;4917535;28;20054;-79
2022/11/30 10:22:25;;;;;;;8.93;3.45;;;;;;;-7.65;73.10;99659.84;4900297;28;20068;-79
2022/11/30 10:25:38;;;;;;;9.38;3.78;;;;;;;-7.67;73.81;99671.59;4905684;28;20106;-79
2022/11/30 10:32:15;;;;;;;7.05;3.60;;;;;;;-7.85;75.00;99658.94;4915236;28;20500;-79
2022/11/30 10:34:55;;;;;;;11.65;5.65;;;;;;;-7.64;75.77;99673.41;4909316;28;20055;-79
2022/11/30 10:37:34;;;;;;;32.50;9.05;;;;;;;-7.68;75.70;99684.22;4929017;28;20044;-78
2022/11/30 10:40:12;;;;;;;34.78;13.07;;;;;;;-7.76;75.91;99655.06;4920222;28;20081;-79
2022/11/30 10:42:57;;;;;;;15.80;6.10;;;;;;;-7.64;75.96;99686.09;4919444;28;20040;-79
2022/11/30 10:45:31;;;;;;;18.83;4.53;;;;;;;-7.68;76.20;99684.22;4919838;28;20059;-79
2022/11/30 10:48:12;;;;;;;14.07;4.70;;;;;;;-7.63;76.18;99698.00;4930289;28;20048;-82
2022/11/30 10:50:49;;;;;;;12.70;5.22;;;;;;;-7.71;76.51;99704.34;4920322;28;20371;-79
2022/11/30 10:53:25;;;;;;;13.18;6.30;;;;;;;-7.87;77.18;99698.56;4919983;28;20306;-81
2022/11/30 10:56:04;;;;;;;11.23;5.43;;;;;;;-7.78;77.77;99697.28;4930254;28;20406;-79
2022/11/30 10:58:39;;;;;;;16.92;5.85;;;;;;;-7.91;78.06;99645.97;4918900;28;20052;-79
2022/11/30 11:01:31;;;;;;;14.27;5.55;;;;;;;-7.63;77.94;99698.00;4916843;28;20470;-79
2022/11/30 11:04:18;;;;;;;15.80;5.45;;;;;;;-7.63;78.29;99698.00;4919342;28;20044;-79
2022/11/30 11:06:58;;;;;;;19.88;6.72;;;;;;;-7.87;77.37;99692.63;4919086;28;20044;-80
2022/11/30 11:09:39;;;;;;;34.03;13.17;;;;;;;-8.02;77.58;99680.06;4919554;28;20048;-79
2022/11/30 11:12:18;;;;;;;12.07;5.10;;;;;;;-7.78;77.78;99709.97;4919755;28;20283;-79
2022/11/30 11:14:49;;;;;;;9.82;3.50;;;;;;;-7.83;77.09;99720.75;4919812;28;20387;-78
2022/11/30 11:17:25;;;;;;;5.38;3.00;;;;;;;-7.87;77.57;99723.91;4930267;28;20071;-78
2022/11/30 11:19:56;;;;;;;63.17;17.15;;;;;;;-7.88;77.54;99727.25;4922404;28;20222;-78
2022/11/30 11:22:34;;;;;;;37.80;10.63;;;;;;;-7.82;78.00;99727.53;4926998;28;20049;-79
2022/11/30 11:25:21;;;;;;;11.82;5.57;;;;;;;-7.76;78.29;99736.25;4929693;28;20051;-77
2022/11/30 11:27:56;;;;;;;69.97;21.98;;;;;;;-7.65;78.21;99724.94;4916025;28;20045;-78
2022/11/30 11:30:32;;;;;;;13.20;5.45;;;;;;;-7.71;77.79;99719.56;4915225;28;20061;-79
2022/11/30 11:33:32;;;;;;;6.53;3.42;;;;;;;-7.66;77.75;99738.41;4925831;28;20057;-78
2022/11/30 11:36:15;;;;;;;62.10;19.75;;;;;;;-7.59;78.21;99730.31;4916076;28;20049;-77
2022/11/30 11:38:50;;;;;;;13.88;5.13;;;;;;;-7.59;77.82;99725.22;4917398;28;20075;-78
2022/11/30 11:41:26;;;;;;;10.85;3.97;;;;;;;-7.62;77.92;99725.09;4917831;28;20047;-78
2022/11/30 11:44:04;;;;;;;55.25;17.60;;;;;;;-7.73;77.78;99721.19;4926371;28;20049;-78
2022/11/30 11:46:38;;;;;;;27.77;10.70;;;;;;;-7.82;78.04;99722.47;4926639;28;20082;-78
2022/11/30 11:49:24;;;;;;;20.10;7.05;;;;;;;-7.63;77.54;99726.75;4920017;28;20053;-78
2022/11/30 11:52:02;;;;;;;24.17;8.68;;;;;;;-7.51;78.05;99729.00;4917668;28;20049;-78
2022/11/30 11:54:40;;;;;;;10.10;3.95;;;;;;;-7.53;77.63;99720.47;4920019;28;20371;-78
2022/11/30 11:57:13;;;;;;;7.28;3.08;;;;;;;-7.71;76.85;99720.47;4915932;28;20048;-78
2022/11/30 11:59:55;;;;;;;7.20;3.13;;;;;;;-7.60;76.56;99738.72;4928170;28;20313;-78
2022/11/30 12:02:59;;;;;;;5.70;2.55;;;;;;;-7.71;75.99;99729.72;4929187;28;20067;-78
2022/11/30 12:05:59;;;;;;;8.60;2.78;;;;;;;-7.91;75.26;99732.19;4919033;28;20086;-78
2022/11/30 12:08:42;;;;;;;5.15;3.13;;;;;;;-7.81;75.39;99754.66;4908765;28;20340;-78
2022/11/30 12:11:18;;;;;;;6.28;2.65;;;;;;;-7.78;75.71;99758.16;4919901;28;20094;-78
2022/11/30 12:14:12;;;;;;;5.07;2.65;;;;;;;-7.73;75.35;99756.69;4900241;28;20060;-78
2022/11/30 12:17:18;;;;;;;6.05;2.47;;;;;;;-7.95;75.45;99715.06;4918207;28;20048;-78